sensor_id;sensor_type;location;lat;lon;timestamp;P1;durP1;ratioP1;P2;durP2;ratioP2
48327;SDS011;34136;51.022;7.082;2023-06-24T00:00:40;7.10;;;5.70;;
48327;SDS011;34136;51.022;7.082;2023-06-24T00:03:26;7.50;;;5.70;;
48327;SDS011;34136;51.022;7.082;2023-06-24T00:06:12;6.90;;;5.75;;
48327;SDS011;34136;51.022;7.082;2023-06-24T00:08:59;6.78;;;5.97;;
48327;SDS011;34136;51.022;7.082;2023-06-24T00:11:46;8.07;;;6.43;;
48327;SDS011;34136;51.022;7.082;2023-06-24T00:14:32;7.93;;;5.90;;
48327;SDS011;34136;51.022;7.082;2023-06-24T00:17:18;7.47;;;6.18;;
48327;SDS011;34136;51.022;7.082;2023-06-24T00:20:04;9.82;;;6.40;;
48327;SDS011;34136;51.022;7.082;2023-06-24T00:22:50;7.80;;;6.38;;
48327;SDS011;34136;51.022;7.082;2023-06-24T00:25:37;7.00;;;6.30;;
48327;SDS011;34136;51.022;7.082;2023-06-24T00:28:23;8.52;;;6.45;;
48327;SDS011;34136;51.022;7.082;2023-06-24T00:31:09;7.53;;;6.75;;
48327;SDS011;34136;51.022;7.082;2023-06-24T00:33:56;6.85;;;6.15;;
48327;SDS011;34136;51.022;7.082;2023-06-24T00:36:42;7.53;;;6.80;;
48327;SDS011;34136;51.022;7.082;2023-06-24T00:39:28;7.38;;;6.22;;
48327;SDS011;34136;51.022;7.082;2023-06-24T00:42:15;6.95;;;5.95;;
48327;SDS011;34136;51.022;7.082;2023-06-24T00:45:01;6.55;;;5.95;;
48327;SDS011;34136;51.022;7.082;2023-06-24T00:47:47;8.15;;;6.20;;
48327;SDS011;34136;51.022;7.082;2023-06-24T00:50:33;8.13;;;6.28;;
48327;SDS011;34136;51.022;7.082;2023-06-24T00:53:19;7.97;;;6.18;;
48327;SDS011;34136;51.022;7.082;2023-06-24T00:56:06;6.72;;;6.00;;
48327;SDS011;34136;51.022;7.082;2023-06-24T00:58:52;9.13;;;5.95;;
48327;SDS011;34136;51.022;7.082;2023-06-24T01:01:40;9.55;;;6.13;;
48327;SDS011;34136;51.022;7.082;2023-06-24T01:04:27;9.57;;;6.10;;
48327;SDS011;34136;51.022;7.082;2023-06-24T01:07:14;8.20;;;6.65;;
48327;SDS011;34136;51.022;7.082;2023-06-24T01:10:02;9.80;;;6.35;;
48327;SDS011;34136;51.022;7.082;2023-06-24T01:12:49;6.75;;;6.05;;
48327;SDS011;34136;51.022;7.082;2023-06-24T01:15:35;8.07;;;5.93;;
48327;SDS011;34136;51.022;7.082;2023-06-24T01:18:24;6.50;;;5.90;;
48327;SDS011;34136;51.022;7.082;2023-06-24T01:30:54;9.57;;;6.45;;
48327;SDS011;34136;51.022;7.082;2023-06-24T01:34:01;6.65;;;5.80;;
48327;SDS011;34136;51.022;7.082;2023-06-24T01:40:10;8.80;;;6.22;;
48327;SDS011;34136;51.022;7.082;2023-06-24T01:43:00;6.72;;;6.00;;
48327;SDS011;34136;51.022;7.082;2023-06-24T01:45:50;7.30;;;6.20;;
48327;SDS011;34136;51.022;7.082;2023-06-24T01:48:38;9.27;;;6.00;;
48327;SDS011;34136;51.022;7.082;2023-06-24T01:51:28;7.30;;;6.22;;
48327;SDS011;34136;51.022;7.082;2023-06-24T01:54:18;8.10;;;6.22;;
48327;SDS011;34136;51.022;7.082;2023-06-24T01:57:06;11.13;;;6.88;;
48327;SDS011;34136;51.022;7.082;2023-06-24T01:59:55;6.63;;;5.82;;
48327;SDS011;34136;51.022;7.082;2023-06-24T02:02:43;9.15;;;6.40;;
48327;SDS011;34136;51.022;7.082;2023-06-24T02:05:31;13.38;;;6.70;;
48327;SDS011;34136;51.022;7.082;2023-06-24T02:08:20;7.93;;;6.55;;
48327;SDS011;34136;51.022;7.082;2023-06-24T02:11:08;8.88;;;6.80;;
48327;SDS011;34136;51.022;7.082;2023-06-24T02:13:58;9.40;;;6.30;;
48327;SDS011;34136;51.022;7.082;2023-06-24T02:16:47;7.55;;;6.15;;
48327;SDS011;34136;51.022;7.082;2023-06-24T02:19:35;9.48;;;6.75;;
48327;SDS011;34136;51.022;7.082;2023-06-24T02:22:22;10.20;;;7.10;;
48327;SDS011;34136;51.022;7.082;2023-06-24T02:25:11;7.95;;;6.30;;
48327;SDS011;34136;51.022;7.082;2023-06-24T02:27:58;9.15;;;6.40;;
48327;SDS011;34136;51.022;7.082;2023-06-24T02:30:45;9.60;;;7.07;;
48327;SDS011;34136;51.022;7.082;2023-06-24T02:33:34;10.32;;;6.30;;
48327;SDS011;34136;51.022;7.082;2023-06-24T02:36:20;11.75;;;6.50;;
48327;SDS011;34136;51.022;7.082;2023-06-24T02:39:07;8.82;;;6.80;;
48327;SDS011;34136;51.022;7.082;2023-06-24T02:41:54;8.73;;;6.43;;
48327;SDS011;34136;51.022;7.082;2023-06-24T02:44:40;8.25;;;6.35;;
48327;SDS011;34136;51.022;7.082;2023-06-24T02:47:27;9.00;;;6.40;;
48327;SDS011;34136;51.022;7.082;2023-06-24T02:50:15;8.13;;;6.35;;
48327;SDS011;34136;51.022;7.082;2023-06-24T02:53:02;8.82;;;6.80;;
48327;SDS011;34136;51.022;7.082;2023-06-24T02:55:52;7.65;;;6.65;;
48327;SDS011;34136;51.022;7.082;2023-06-24T02:58:40;7.75;;;6.70;;
48327;SDS011;34136;51.022;7.082;2023-06-24T03:01:40;7.00;;;6.30;;
48327;SDS011;34136;51.022;7.082;2023-06-24T03:04:27;11.70;;;6.15;;
48327;SDS011;34136;51.022;7.082;2023-06-24T03:07:14;7.20;;;6.50;;
48327;SDS011;34136;51.022;7.082;2023-06-24T03:10:03;7.80;;;6.43;;
48327;SDS011;34136;51.022;7.082;2023-06-24T03:12:50;9.70;;;6.65;;
48327;SDS011;34136;51.022;7.082;2023-06-24T03:15:39;10.30;;;6.80;;
48327;SDS011;34136;51.022;7.082;2023-06-24T03:18:25;8.45;;;6.53;;
48327;SDS011;34136;51.022;7.082;2023-06-24T03:21:12;8.70;;;7.05;;
48327;SDS011;34136;51.022;7.082;2023-06-24T03:23:59;7.85;;;6.85;;
48327;SDS011;34136;51.022;7.082;2023-06-24T03:26:47;6.68;;;6.03;;
48327;SDS011;34136;51.022;7.082;2023-06-24T03:29:34;10.35;;;6.68;;
48327;SDS011;34136;51.022;7.082;2023-06-24T03:32:29;9.13;;;6.50;;
48327;SDS011;34136;51.022;7.082;2023-06-24T03:35:15;7.03;;;6.43;;
48327;SDS011;34136;51.022;7.082;2023-06-24T03:38:03;7.88;;;6.43;;
48327;SDS011;34136;51.022;7.082;2023-06-24T03:40:51;9.18;;;7.13;;
48327;SDS011;34136;51.022;7.082;2023-06-24T03:43:38;11.90;;;6.85;;
48327;SDS011;34136;51.022;7.082;2023-06-24T03:46:25;10.32;;;7.60;;
48327;SDS011;34136;51.022;7.082;2023-06-24T03:49:11;9.93;;;6.38;;
48327;SDS011;34136;51.022;7.082;2023-06-24T03:51:58;11.15;;;7.80;;
48327;SDS011;34136;51.022;7.082;2023-06-24T03:54:44;10.60;;;7.45;;
48327;SDS011;34136;51.022;7.082;2023-06-24T03:57:31;10.10;;;7.50;;
48327;SDS011;34136;51.022;7.082;2023-06-24T04:00:17;8.20;;;6.85;;
48327;SDS011;34136;51.022;7.082;2023-06-24T04:03:04;8.52;;;7.28;;
48327;SDS011;34136;51.022;7.082;2023-06-24T04:05:52;8.73;;;6.90;;
48327;SDS011;34136;51.022;7.082;2023-06-24T04:08:40;11.15;;;7.22;;
48327;SDS011;34136;51.022;7.082;2023-06-24T04:11:27;9.77;;;7.15;;
48327;SDS011;34136;51.022;7.082;2023-06-24T04:14:13;11.95;;;7.05;;
48327;SDS011;34136;51.022;7.082;2023-06-24T04:16:59;7.93;;;7.13;;
48327;SDS011;34136;51.022;7.082;2023-06-24T04:19:46;8.20;;;6.65;;
48327;SDS011;34136;51.022;7.082;2023-06-24T04:22:32;10.23;;;7.03;;
48327;SDS011;34136;51.022;7.082;2023-06-24T04:25:21;7.90;;;6.30;;
48327;SDS011;34136;51.022;7.082;2023-06-24T04:28:07;9.50;;;6.60;;
48327;SDS011;34136;51.022;7.082;2023-06-24T04:30:54;7.85;;;6.90;;
48327;SDS011;34136;51.022;7.082;2023-06-24T04:33:42;10.20;;;6.90;;
48327;SDS011;34136;51.022;7.082;2023-06-24T04:36:28;8.55;;;6.85;;
48327;SDS011;34136;51.022;7.082;2023-06-24T04:39:15;9.60;;;6.80;;
48327;SDS011;34136;51.022;7.082;2023-06-24T04:42:01;7.80;;;6.57;;
48327;SDS011;34136;51.022;7.082;2023-06-24T04:44:47;8.23;;;6.55;;
48327;SDS011;34136;51.022;7.082;2023-06-24T04:47:34;9.27;;;6.60;;
48327;SDS011;34136;51.022;7.082;2023-06-24T04:50:20;9.35;;;6.43;;
48327;SDS011;34136;51.022;7.082;2023-06-24T04:53:06;7.38;;;6.18;;
48327;SDS011;34136;51.022;7.082;2023-06-24T04:55:53;8.15;;;6.50;;
48327;SDS011;34136;51.022;7.082;2023-06-24T04:58:39;6.80;;;6.20;;
48327;SDS011;34136;51.022;7.082;2023-06-24T05:01:25;7.78;;;6.32;;
48327;SDS011;34136;51.022;7.082;2023-06-24T05:04:12;8.32;;;6.70;;
48327;SDS011;34136;51.022;7.082;2023-06-24T05:06:58;7.05;;;6.35;;
48327;SDS011;34136;51.022;7.082;2023-06-24T05:09:47;8.73;;;6.45;;
48327;SDS011;34136;51.022;7.082;2023-06-24T05:12:35;7.88;;;6.28;;
48327;SDS011;34136;51.022;7.082;2023-06-24T05:15:21;7.35;;;6.13;;
48327;SDS011;34136;51.022;7.082;2023-06-24T05:18:07;8.13;;;6.20;;
48327;SDS011;34136;51.022;7.082;2023-06-24T05:20:54;7.03;;;5.68;;
48327;SDS011;34136;51.022;7.082;2023-06-24T05:23:40;7.85;;;6.10;;
48327;SDS011;34136;51.022;7.082;2023-06-24T05:26:26;5.90;;;5.05;;
48327;SDS011;34136;51.022;7.082;2023-06-24T05:29:12;8.40;;;5.38;;
48327;SDS011;34136;51.022;7.082;2023-06-24T05:31:59;6.30;;;5.70;;
48327;SDS011;34136;51.022;7.082;2023-06-24T05:34:46;9.27;;;5.57;;
48327;SDS011;34136;51.022;7.082;2023-06-24T05:37:32;6.57;;;5.43;;
48327;SDS011;34136;51.022;7.082;2023-06-24T05:40:19;6.80;;;6.10;;
48327;SDS011;34136;51.022;7.082;2023-06-24T05:43:05;6.18;;;5.55;;
48327;SDS011;34136;51.022;7.082;2023-06-24T05:45:52;7.30;;;6.10;;
48327;SDS011;34136;51.022;7.082;2023-06-24T05:48:38;7.95;;;5.68;;
48327;SDS011;34136;51.022;7.082;2023-06-24T05:51:25;8.27;;;6.32;;
48327;SDS011;34136;51.022;7.082;2023-06-24T05:54:11;7.47;;;6.18;;
48327;SDS011;34136;51.022;7.082;2023-06-24T05:56:57;7.07;;;6.10;;
48327;SDS011;34136;51.022;7.082;2023-06-24T05:59:44;8.57;;;6.70;;
48327;SDS011;34136;51.022;7.082;2023-06-24T06:02:31;13.70;;;6.43;;
48327;SDS011;34136;51.022;7.082;2023-06-24T06:05:17;9.98;;;6.50;;
48327;SDS011;34136;51.022;7.082;2023-06-24T06:08:03;7.13;;;6.25;;
48327;SDS011;34136;51.022;7.082;2023-06-24T06:10:50;7.47;;;6.15;;
48327;SDS011;34136;51.022;7.082;2023-06-24T06:13:36;6.85;;;6.13;;
48327;SDS011;34136;51.022;7.082;2023-06-24T06:16:22;9.73;;;6.20;;
48327;SDS011;34136;51.022;7.082;2023-06-24T06:19:09;7.78;;;7.07;;
48327;SDS011;34136;51.022;7.082;2023-06-24T06:21:56;8.52;;;6.78;;
48327;SDS011;34136;51.022;7.082;2023-06-24T06:24:42;7.75;;;6.63;;
48327;SDS011;34136;51.022;7.082;2023-06-24T06:27:28;10.25;;;7.10;;
48327;SDS011;34136;51.022;7.082;2023-06-24T06:30:15;9.40;;;6.90;;
48327;SDS011;34136;51.022;7.082;2023-06-24T06:33:01;9.57;;;7.07;;
48327;SDS011;34136;51.022;7.082;2023-06-24T06:35:48;12.52;;;7.32;;
48327;SDS011;34136;51.022;7.082;2023-06-24T06:38:34;11.20;;;7.68;;
48327;SDS011;34136;51.022;7.082;2023-06-24T06:41:21;7.40;;;6.57;;
48327;SDS011;34136;51.022;7.082;2023-06-24T06:44:07;9.73;;;8.27;;
48327;SDS011;34136;51.022;7.082;2023-06-24T06:46:53;10.02;;;8.68;;
48327;SDS011;34136;51.022;7.082;2023-06-24T06:49:40;11.20;;;8.63;;
48327;SDS011;34136;51.022;7.082;2023-06-24T06:52:26;10.95;;;8.60;;
48327;SDS011;34136;51.022;7.082;2023-06-24T06:55:13;10.32;;;8.30;;
48327;SDS011;34136;51.022;7.082;2023-06-24T06:57:59;10.50;;;8.02;;
48327;SDS011;34136;51.022;7.082;2023-06-24T07:00:46;11.27;;;9.00;;
48327;SDS011;34136;51.022;7.082;2023-06-24T07:03:32;16.10;;;9.80;;
48327;SDS011;34136;51.022;7.082;2023-06-24T07:06:19;12.55;;;9.90;;
48327;SDS011;34136;51.022;7.082;2023-06-24T07:09:05;14.02;;;9.95;;
48327;SDS011;34136;51.022;7.082;2023-06-24T07:11:51;11.25;;;9.40;;
48327;SDS011;34136;51.022;7.082;2023-06-24T07:14:38;9.77;;;8.70;;
48327;SDS011;34136;51.022;7.082;2023-06-24T07:17:24;11.52;;;8.75;;
48327;SDS011;34136;51.022;7.082;2023-06-24T07:20:11;10.68;;;9.25;;
48327;SDS011;34136;51.022;7.082;2023-06-24T07:22:57;10.65;;;9.52;;
48327;SDS011;34136;51.022;7.082;2023-06-24T07:25:44;8.98;;;8.07;;
48327;SDS011;34136;51.022;7.082;2023-06-24T07:28:30;10.15;;;9.02;;
48327;SDS011;34136;51.022;7.082;2023-06-24T07:31:16;10.43;;;9.40;;
48327;SDS011;34136;51.022;7.082;2023-06-24T07:34:03;10.30;;;8.80;;
48327;SDS011;34136;51.022;7.082;2023-06-24T07:36:49;9.98;;;8.73;;
48327;SDS011;34136;51.022;7.082;2023-06-24T07:39:36;11.05;;;8.73;;
48327;SDS011;34136;51.022;7.082;2023-06-24T07:42:23;13.70;;;9.63;;
48327;SDS011;34136;51.022;7.082;2023-06-24T07:45:09;11.75;;;10.38;;
48327;SDS011;34136;51.022;7.082;2023-06-24T07:47:56;11.45;;;9.45;;
48327;SDS011;34136;51.022;7.082;2023-06-24T07:50:42;11.63;;;9.38;;
48327;SDS011;34136;51.022;7.082;2023-06-24T07:53:29;9.93;;;8.93;;
48327;SDS011;34136;51.022;7.082;2023-06-24T07:56:15;10.38;;;9.30;;
48327;SDS011;34136;51.022;7.082;2023-06-24T07:59:01;10.68;;;9.60;;
48327;SDS011;34136;51.022;7.082;2023-06-24T08:01:48;10.13;;;9.00;;
48327;SDS011;34136;51.022;7.082;2023-06-24T08:04:35;12.75;;;8.93;;
48327;SDS011;34136;51.022;7.082;2023-06-24T08:07:21;11.90;;;9.80;;
48327;SDS011;34136;51.022;7.082;2023-06-24T08:10:08;10.55;;;9.25;;
48327;SDS011;34136;51.022;7.082;2023-06-24T08:12:54;13.07;;;10.32;;
48327;SDS011;34136;51.022;7.082;2023-06-24T08:15:40;11.20;;;9.48;;
48327;SDS011;34136;51.022;7.082;2023-06-24T08:18:27;11.02;;;9.63;;
48327;SDS011;34136;51.022;7.082;2023-06-24T08:21:13;13.23;;;10.23;;
48327;SDS011;34136;51.022;7.082;2023-06-24T08:24:00;10.90;;;9.23;;
48327;SDS011;34136;51.022;7.082;2023-06-24T08:26:46;10.85;;;8.88;;
48327;SDS011;34136;51.022;7.082;2023-06-24T08:29:51;15.30;;;10.77;;
48327;SDS011;34136;51.022;7.082;2023-06-24T08:32:46;13.73;;;9.98;;
48327;SDS011;34136;51.022;7.082;2023-06-24T08:35:33;12.98;;;10.20;;
48327;SDS011;34136;51.022;7.082;2023-06-24T08:38:19;10.35;;;9.10;;
48327;SDS011;34136;51.022;7.082;2023-06-24T08:41:06;10.77;;;9.65;;
48327;SDS011;34136;51.022;7.082;2023-06-24T08:43:53;11.85;;;10.65;;
48327;SDS011;34136;51.022;7.082;2023-06-24T08:46:39;13.18;;;10.10;;
48327;SDS011;34136;51.022;7.082;2023-06-24T08:49:28;12.55;;;10.90;;
48327;SDS011;34136;51.022;7.082;2023-06-24T08:52:16;14.73;;;11.52;;
48327;SDS011;34136;51.022;7.082;2023-06-24T08:55:04;12.15;;;9.52;;
48327;SDS011;34136;51.022;7.082;2023-06-24T08:57:52;11.98;;;10.68;;
48327;SDS011;34136;51.022;7.082;2023-06-24T09:00:39;11.10;;;9.30;;
48327;SDS011;34136;51.022;7.082;2023-06-24T09:03:25;13.40;;;10.38;;
48327;SDS011;34136;51.022;7.082;2023-06-24T09:06:11;14.05;;;10.35;;
48327;SDS011;34136;51.022;7.082;2023-06-24T09:08:58;15.02;;;10.73;;
48327;SDS011;34136;51.022;7.082;2023-06-24T09:11:50;14.02;;;9.90;;
48327;SDS011;34136;51.022;7.082;2023-06-24T09:14:37;11.63;;;10.40;;
48327;SDS011;34136;51.022;7.082;2023-06-24T09:17:24;15.13;;;11.88;;
48327;SDS011;34136;51.022;7.082;2023-06-24T09:20:10;13.20;;;10.95;;
48327;SDS011;34136;51.022;7.082;2023-06-24T09:22:58;14.02;;;11.45;;
48327;SDS011;34136;51.022;7.082;2023-06-24T09:25:50;14.38;;;11.93;;
48327;SDS011;34136;51.022;7.082;2023-06-24T09:28:46;11.73;;;9.73;;
48327;SDS011;34136;51.022;7.082;2023-06-24T09:31:33;9.20;;;7.72;;
48327;SDS011;34136;51.022;7.082;2023-06-24T09:34:20;15.00;;;11.88;;
48327;SDS011;34136;51.022;7.082;2023-06-24T09:37:06;13.75;;;12.30;;
48327;SDS011;34136;51.022;7.082;2023-06-24T09:39:52;14.73;;;11.77;;
48327;SDS011;34136;51.022;7.082;2023-06-24T09:42:47;14.50;;;9.07;;
48327;SDS011;34136;51.022;7.082;2023-06-24T09:45:44;8.75;;;6.43;;
48327;SDS011;34136;51.022;7.082;2023-06-24T09:48:30;10.95;;;7.50;;
48327;SDS011;34136;51.022;7.082;2023-06-24T09:51:16;10.23;;;6.60;;
48327;SDS011;34136;51.022;7.082;2023-06-24T09:54:06;10.00;;;6.70;;
48327;SDS011;34136;51.022;7.082;2023-06-24T09:56:52;8.88;;;6.00;;
48327;SDS011;34136;51.022;7.082;2023-06-24T09:59:40;8.52;;;6.72;;
48327;SDS011;34136;51.022;7.082;2023-06-24T10:02:28;8.00;;;6.15;;
48327;SDS011;34136;51.022;7.082;2023-06-24T10:05:16;7.90;;;7.00;;
48327;SDS011;34136;51.022;7.082;2023-06-24T10:08:05;8.77;;;7.88;;
48327;SDS011;34136;51.022;7.082;2023-06-24T10:10:52;6.90;;;5.72;;
48327;SDS011;34136;51.022;7.082;2023-06-24T10:13:38;8.20;;;5.72;;
48327;SDS011;34136;51.022;7.082;2023-06-24T10:16:25;7.90;;;6.03;;
48327;SDS011;34136;51.022;7.082;2023-06-24T10:19:14;7.68;;;5.72;;
48327;SDS011;34136;51.022;7.082;2023-06-24T10:22:09;8.80;;;5.45;;
48327;SDS011;34136;51.022;7.082;2023-06-24T10:24:59;7.00;;;5.32;;
48327;SDS011;34136;51.022;7.082;2023-06-24T10:27:46;7.78;;;6.32;;
48327;SDS011;34136;51.022;7.082;2023-06-24T10:30:49;8.25;;;5.57;;
48327;SDS011;34136;51.022;7.082;2023-06-24T10:33:40;7.20;;;5.85;;
48327;SDS011;34136;51.022;7.082;2023-06-24T10:36:32;6.53;;;4.70;;
48327;SDS011;34136;51.022;7.082;2023-06-24T10:39:34;7.75;;;5.10;;
48327;SDS011;34136;51.022;7.082;2023-06-24T10:45:18;10.73;;;6.75;;
48327;SDS011;34136;51.022;7.082;2023-06-24T10:48:05;7.95;;;6.22;;
48327;SDS011;34136;51.022;7.082;2023-06-24T10:50:51;8.35;;;6.40;;
48327;SDS011;34136;51.022;7.082;2023-06-24T10:53:37;7.03;;;5.07;;
48327;SDS011;34136;51.022;7.082;2023-06-24T10:56:29;6.80;;;4.53;;
48327;SDS011;34136;51.022;7.082;2023-06-24T10:59:16;5.55;;;4.28;;
48327;SDS011;34136;51.022;7.082;2023-06-24T11:02:03;5.60;;;3.90;;
48327;SDS011;34136;51.022;7.082;2023-06-24T11:04:57;6.03;;;3.58;;
48327;SDS011;34136;51.022;7.082;2023-06-24T11:07:44;5.57;;;3.60;;
48327;SDS011;34136;51.022;7.082;2023-06-24T11:10:31;5.03;;;4.00;;
48327;SDS011;34136;51.022;7.082;2023-06-24T11:13:19;4.38;;;3.20;;
48327;SDS011;34136;51.022;7.082;2023-06-24T11:16:06;4.78;;;3.58;;
48327;SDS011;34136;51.022;7.082;2023-06-24T11:18:52;3.50;;;2.97;;
48327;SDS011;34136;51.022;7.082;2023-06-24T11:21:39;3.88;;;3.15;;
48327;SDS011;34136;51.022;7.082;2023-06-24T11:24:26;4.28;;;3.33;;
48327;SDS011;34136;51.022;7.082;2023-06-24T11:27:13;4.38;;;3.20;;
48327;SDS011;34136;51.022;7.082;2023-06-24T11:30:00;5.32;;;3.38;;
48327;SDS011;34136;51.022;7.082;2023-06-24T11:32:46;4.72;;;3.42;;
48327;SDS011;34136;51.022;7.082;2023-06-24T11:35:33;4.88;;;3.28;;
48327;SDS011;34136;51.022;7.082;2023-06-24T11:38:19;4.78;;;3.42;;
48327;SDS011;34136;51.022;7.082;2023-06-24T11:41:06;3.65;;;3.28;;
48327;SDS011;34136;51.022;7.082;2023-06-24T11:43:53;4.78;;;3.22;;
48327;SDS011;34136;51.022;7.082;2023-06-24T11:46:39;4.22;;;3.22;;
48327;SDS011;34136;51.022;7.082;2023-06-24T11:49:26;4.95;;;3.42;;
48327;SDS011;34136;51.022;7.082;2023-06-24T11:52:12;4.50;;;3.22;;
48327;SDS011;34136;51.022;7.082;2023-06-24T11:54:59;5.35;;;3.10;;
48327;SDS011;34136;51.022;7.082;2023-06-24T12:00:39;13.27;;;10.68;;
48327;SDS011;34136;51.022;7.082;2023-06-24T12:03:27;6.22;;;3.97;;
48327;SDS011;34136;51.022;7.082;2023-06-24T12:06:18;5.55;;;3.28;;
48327;SDS011;34136;51.022;7.082;2023-06-24T12:09:04;4.50;;;3.63;;
48327;SDS011;34136;51.022;7.082;2023-06-24T12:11:51;3.88;;;3.30;;
48327;SDS011;34136;51.022;7.082;2023-06-24T12:14:38;5.43;;;3.50;;
48327;SDS011;34136;51.022;7.082;2023-06-24T12:17:24;7.47;;;3.20;;
48327;SDS011;34136;51.022;7.082;2023-06-24T12:20:10;4.40;;;3.40;;
48327;SDS011;34136;51.022;7.082;2023-06-24T12:22:57;3.72;;;3.30;;
48327;SDS011;34136;51.022;7.082;2023-06-24T12:25:44;3.65;;;3.33;;
48327;SDS011;34136;51.022;7.082;2023-06-24T12:28:30;5.55;;;3.30;;
48327;SDS011;34136;51.022;7.082;2023-06-24T12:31:16;5.78;;;3.30;;
48327;SDS011;34136;51.022;7.082;2023-06-24T12:34:03;5.07;;;3.50;;
48327;SDS011;34136;51.022;7.082;2023-06-24T12:36:49;3.55;;;3.22;;
48327;SDS011;34136;51.022;7.082;2023-06-24T12:39:36;4.30;;;3.13;;
48327;SDS011;34136;51.022;7.082;2023-06-24T12:42:22;3.38;;;3.08;;
48327;SDS011;34136;51.022;7.082;2023-06-24T12:45:09;5.70;;;3.60;;
48327;SDS011;34136;51.022;7.082;2023-06-24T12:47:56;4.18;;;3.13;;
48327;SDS011;34136;51.022;7.082;2023-06-24T12:50:42;6.75;;;3.10;;
48327;SDS011;34136;51.022;7.082;2023-06-24T12:53:29;5.53;;;3.38;;
48327;SDS011;34136;51.022;7.082;2023-06-24T12:56:15;4.45;;;3.40;;
48327;SDS011;34136;51.022;7.082;2023-06-24T12:59:01;4.95;;;3.80;;
48327;SDS011;34136;51.022;7.082;2023-06-24T13:01:48;4.55;;;3.40;;
48327;SDS011;34136;51.022;7.082;2023-06-24T13:04:34;5.00;;;3.30;;
48327;SDS011;34136;51.022;7.082;2023-06-24T13:07:21;4.57;;;3.10;;
48327;SDS011;34136;51.022;7.082;2023-06-24T13:10:07;6.18;;;3.15;;
48327;SDS011;34136;51.022;7.082;2023-06-24T13:12:55;5.53;;;3.25;;
48327;SDS011;34136;51.022;7.082;2023-06-24T13:15:41;3.38;;;3.00;;
48327;SDS011;34136;51.022;7.082;2023-06-24T13:18:27;3.85;;;3.30;;
48327;SDS011;34136;51.022;7.082;2023-06-24T13:21:14;8.55;;;3.53;;
48327;SDS011;34136;51.022;7.082;2023-06-24T13:24:00;6.05;;;3.67;;
48327;SDS011;34136;51.022;7.082;2023-06-24T13:26:47;5.57;;;3.83;;
48327;SDS011;34136;51.022;7.082;2023-06-24T13:29:33;4.72;;;3.17;;
48327;SDS011;34136;51.022;7.082;2023-06-24T13:32:20;6.88;;;3.53;;
48327;SDS011;34136;51.022;7.082;2023-06-24T13:35:06;4.25;;;3.55;;
48327;SDS011;34136;51.022;7.082;2023-06-24T13:37:53;5.32;;;3.75;;
48327;SDS011;34136;51.022;7.082;2023-06-24T13:40:39;5.15;;;3.60;;
48327;SDS011;34136;51.022;7.082;2023-06-24T13:43:26;5.60;;;3.78;;
48327;SDS011;34136;51.022;7.082;2023-06-24T13:46:12;4.35;;;3.53;;
48327;SDS011;34136;51.022;7.082;2023-06-24T13:48:59;5.50;;;3.38;;
48327;SDS011;34136;51.022;7.082;2023-06-24T13:51:46;4.45;;;3.50;;
48327;SDS011;34136;51.022;7.082;2023-06-24T13:54:32;5.55;;;3.92;;
48327;SDS011;34136;51.022;7.082;2023-06-24T13:57:19;7.90;;;3.83;;
48327;SDS011;34136;51.022;7.082;2023-06-24T14:00:06;4.80;;;3.45;;
48327;SDS011;34136;51.022;7.082;2023-06-24T14:02:57;4.68;;;3.50;;
48327;SDS011;34136;51.022;7.082;2023-06-24T14:05:44;8.55;;;3.70;;
48327;SDS011;34136;51.022;7.082;2023-06-24T14:08:31;5.15;;;3.58;;
48327;SDS011;34136;51.022;7.082;2023-06-24T14:11:17;4.22;;;3.38;;
48327;SDS011;34136;51.022;7.082;2023-06-24T14:14:04;5.18;;;3.70;;
48327;SDS011;34136;51.022;7.082;2023-06-24T14:16:50;5.70;;;3.60;;
48327;SDS011;34136;51.022;7.082;2023-06-24T14:19:37;4.50;;;3.50;;
48327;SDS011;34136;51.022;7.082;2023-06-24T14:22:24;3.97;;;3.20;;
48327;SDS011;34136;51.022;7.082;2023-06-24T14:25:10;4.22;;;3.42;;
48327;SDS011;34136;51.022;7.082;2023-06-24T14:27:56;5.03;;;3.17;;
48327;SDS011;34136;51.022;7.082;2023-06-24T14:30:43;4.85;;;3.05;;
48327;SDS011;34136;51.022;7.082;2023-06-24T14:33:29;3.88;;;3.13;;
48327;SDS011;34136;51.022;7.082;2023-06-24T14:36:15;3.17;;;2.83;;
48327;SDS011;34136;51.022;7.082;2023-06-24T14:39:02;4.25;;;2.97;;
48327;SDS011;34136;51.022;7.082;2023-06-24T14:44:30;4.45;;;2.70;;
48327;SDS011;34136;51.022;7.082;2023-06-24T14:47:16;3.50;;;2.92;;
48327;SDS011;34136;51.022;7.082;2023-06-24T14:50:03;4.45;;;3.00;;
48327;SDS011;34136;51.022;7.082;2023-06-24T14:52:50;4.07;;;3.13;;
48327;SDS011;34136;51.022;7.082;2023-06-24T14:55:36;3.90;;;2.70;;
48327;SDS011;34136;51.022;7.082;2023-06-24T14:58:22;5.18;;;3.30;;
48327;SDS011;34136;51.022;7.082;2023-06-24T15:01:08;6.30;;;3.35;;
48327;SDS011;34136;51.022;7.082;2023-06-24T15:03:55;4.43;;;3.20;;
48327;SDS011;34136;51.022;7.082;2023-06-24T15:06:41;7.30;;;3.10;;
48327;SDS011;34136;51.022;7.082;2023-06-24T15:09:28;3.25;;;2.50;;
48327;SDS011;34136;51.022;7.082;2023-06-24T15:12:14;4.28;;;2.88;;
48327;SDS011;34136;51.022;7.082;2023-06-24T15:15:00;4.53;;;2.75;;
48327;SDS011;34136;51.022;7.082;2023-06-24T15:17:46;3.85;;;2.70;;
48327;SDS011;34136;51.022;7.082;2023-06-24T15:20:32;3.60;;;2.80;;
48327;SDS011;34136;51.022;7.082;2023-06-24T15:23:19;3.85;;;2.70;;
48327;SDS011;34136;51.022;7.082;2023-06-24T15:26:06;4.32;;;2.90;;
48327;SDS011;34136;51.022;7.082;2023-06-24T15:28:53;3.88;;;2.30;;
48327;SDS011;34136;51.022;7.082;2023-06-24T15:31:40;4.30;;;2.97;;
48327;SDS011;34136;51.022;7.082;2023-06-24T15:34:27;2.80;;;2.53;;
48327;SDS011;34136;51.022;7.082;2023-06-24T15:37:13;3.88;;;2.63;;
48327;SDS011;34136;51.022;7.082;2023-06-24T15:40:00;3.78;;;2.70;;
48327;SDS011;34136;51.022;7.082;2023-06-24T15:42:47;4.10;;;2.72;;
48327;SDS011;34136;51.022;7.082;2023-06-24T15:45:34;3.58;;;2.60;;
48327;SDS011;34136;51.022;7.082;2023-06-24T15:48:20;3.70;;;2.72;;
48327;SDS011;34136;51.022;7.082;2023-06-24T15:51:06;3.88;;;3.03;;
48327;SDS011;34136;51.022;7.082;2023-06-24T15:53:53;2.88;;;2.55;;
48327;SDS011;34136;51.022;7.082;2023-06-24T15:56:40;5.38;;;2.38;;
48327;SDS011;34136;51.022;7.082;2023-06-24T15:59:26;5.43;;;2.50;;
48327;SDS011;34136;51.022;7.082;2023-06-24T16:02:12;2.90;;;2.40;;
48327;SDS011;34136;51.022;7.082;2023-06-24T16:04:59;3.08;;;2.40;;
48327;SDS011;34136;51.022;7.082;2023-06-24T16:07:45;3.63;;;2.35;;
48327;SDS011;34136;51.022;7.082;2023-06-24T16:10:31;2.60;;;2.17;;
48327;SDS011;34136;51.022;7.082;2023-06-24T16:13:21;4.68;;;2.70;;
48327;SDS011;34136;51.022;7.082;2023-06-24T16:16:07;4.22;;;2.50;;
48327;SDS011;34136;51.022;7.082;2023-06-24T16:18:54;2.78;;;2.40;;
48327;SDS011;34136;51.022;7.082;2023-06-24T16:21:40;2.88;;;2.30;;
48327;SDS011;34136;51.022;7.082;2023-06-24T16:24:26;3.22;;;2.55;;
48327;SDS011;34136;51.022;7.082;2023-06-24T16:27:13;3.13;;;2.42;;
48327;SDS011;34136;51.022;7.082;2023-06-24T16:29:59;4.45;;;2.40;;
48327;SDS011;34136;51.022;7.082;2023-06-24T16:32:46;4.35;;;2.70;;
48327;SDS011;34136;51.022;7.082;2023-06-24T16:35:32;2.92;;;2.08;;
48327;SDS011;34136;51.022;7.082;2023-06-24T16:38:18;4.07;;;2.28;;
48327;SDS011;34136;51.022;7.082;2023-06-24T16:41:05;2.50;;;2.30;;
48327;SDS011;34136;51.022;7.082;2023-06-24T16:43:51;3.95;;;2.40;;
48327;SDS011;34136;51.022;7.082;2023-06-24T16:46:38;2.88;;;2.50;;
48327;SDS011;34136;51.022;7.082;2023-06-24T16:49:24;5.38;;;2.78;;
48327;SDS011;34136;51.022;7.082;2023-06-24T16:52:10;4.88;;;2.70;;
48327;SDS011;34136;51.022;7.082;2023-06-24T16:54:57;4.50;;;2.55;;
48327;SDS011;34136;51.022;7.082;2023-06-24T16:57:44;4.28;;;2.50;;
48327;SDS011;34136;51.022;7.082;2023-06-24T17:00:30;3.13;;;2.20;;
48327;SDS011;34136;51.022;7.082;2023-06-24T17:03:17;3.10;;;2.60;;